FDX508 KMEM-KIND
Flight info
| Callsign | FDX508 |
|---|---|
| Flight time | N/A |
| Altitude | 31000 |
| Route | CRSON7 HUMMS PXV EMBRR SMUKE3 |
| Aircraft | B77L/H-SDE1E2E3FGHIJ2J3J4J5M1RWXY/LB1D1 |
Departure
| Time | 2026-05-06 22:45 |
|---|---|
| Airport | Memphis International Airport (KMEM) |
Arrival
| Time | N/A |
|---|---|
| Airport | Indianapolis International Airport (KIND) |
| Time | Latitude | Longitude | Altitude | Speed | Heading |
|---|---|---|---|---|---|
| 2026-05-06 22:17 | 35.05982 | -89.96121 | 335 ft | 0 kts | 181° |
| 2026-05-06 22:32 | 35.05988 | -89.96121 | 331 ft | 4 kts | 181° |
| 2026-05-06 22:32 | 35.06012 | -89.96121 | 330 ft | 4 kts | 184° |
| 2026-05-06 22:32 | 35.06034 | -89.96113 | 330 ft | 4 kts | 241° |
| 2026-05-06 22:33 | 35.06038 | -89.96083 | 333 ft | 4 kts | 273° |
| 2026-05-06 22:33 | 35.06038 | -89.96067 | 335 ft | 1 kts | 271° |
| 2026-05-06 22:33 | 35.06038 | -89.96066 | 333 ft | 0 kts | 271° |
| 2026-05-06 22:34 | 35.06038 | -89.96067 | 335 ft | 1 kts | 271° |
| 2026-05-06 22:35 | 35.06038 | -89.96100 | 331 ft | 9 kts | 271° |
| 2026-05-06 22:35 | 35.06041 | -89.96194 | 333 ft | 12 kts | 272° |
| 2026-05-06 22:35 | 35.06043 | -89.96298 | 334 ft | 10 kts | 272° |
| 2026-05-06 22:35 | 35.06044 | -89.96317 | 335 ft | 0 kts | 272° |
| 2026-05-06 22:36 | 35.06044 | -89.96334 | 334 ft | 5 kts | 272° |
| 2026-05-06 22:36 | 35.06046 | -89.96403 | 335 ft | 12 kts | 272° |
| 2026-05-06 22:36 | 35.06012 | -89.96512 | 331 ft | 18 kts | 218° |
| 2026-05-06 22:36 | 35.05924 | -89.96601 | 334 ft | 17 kts | 240° |
| 2026-05-06 22:37 | 35.05918 | -89.96722 | 331 ft | 15 kts | 272° |
| 2026-05-06 22:37 | 35.05919 | -89.96858 | 332 ft | 17 kts | 258° |
| 2026-05-06 22:37 | 35.05821 | -89.96922 | 329 ft | 18 kts | 187° |
| 2026-05-06 22:37 | 35.05692 | -89.96945 | 333 ft | 19 kts | 194° |
| 2026-05-06 22:38 | 35.05654 | -89.97083 | 331 ft | 19 kts | 273° |
| 2026-05-06 22:38 | 35.05641 | -89.97236 | 332 ft | 15 kts | 237° |
| 2026-05-06 22:38 | 35.05598 | -89.97307 | 335 ft | 7 kts | 234° |
| 2026-05-06 22:38 | 35.05564 | -89.97366 | 330 ft | 10 kts | 235° |
| 2026-05-06 22:39 | 35.05518 | -89.97447 | 329 ft | 13 kts | 235° |
| 2026-05-06 22:39 | 35.05420 | -89.97482 | 329 ft | 20 kts | 179° |
| 2026-05-06 22:39 | 35.05261 | -89.97478 | 330 ft | 23 kts | 179° |
| 2026-05-06 22:39 | 35.05100 | -89.97475 | 328 ft | 20 kts | 179° |
| 2026-05-06 22:40 | 35.04959 | -89.97472 | 328 ft | 20 kts | 179° |
| 2026-05-06 22:40 | 35.04814 | -89.97468 | 328 ft | 22 kts | 179° |
| 2026-05-06 22:40 | 35.04660 | -89.97465 | 331 ft | 23 kts | 179° |
| 2026-05-06 22:40 | 35.04496 | -89.97462 | 328 ft | 24 kts | 179° |
| 2026-05-06 22:41 | 35.04179 | -89.97455 | 331 ft | 22 kts | 179° |
| 2026-05-06 22:41 | 35.04020 | -89.97451 | 331 ft | 24 kts | 179° |
| 2026-05-06 22:41 | 35.03861 | -89.97449 | 331 ft | 23 kts | 179° |
| 2026-05-06 22:42 | 35.03692 | -89.97445 | 329 ft | 25 kts | 179° |
| 2026-05-06 22:42 | 35.03527 | -89.97441 | 330 ft | 24 kts | 179° |
| 2026-05-06 22:42 | 35.03370 | -89.97438 | 330 ft | 20 kts | 179° |
| 2026-05-06 22:42 | 35.03230 | -89.97434 | 328 ft | 20 kts | 179° |
| 2026-05-06 22:43 | 35.03090 | -89.97432 | 330 ft | 20 kts | 180° |
| 2026-05-06 22:43 | 35.02944 | -89.97432 | 332 ft | 22 kts | 179° |
| 2026-05-06 22:43 | 35.02789 | -89.97428 | 330 ft | 22 kts | 179° |
| 2026-05-06 22:43 | 35.02662 | -89.97425 | 332 ft | 17 kts | 178° |
| 2026-05-06 22:44 | 35.02535 | -89.97421 | 330 ft | 19 kts | 179° |
| 2026-05-06 22:44 | 35.02427 | -89.97432 | 330 ft | 9 kts | 212° |
| 2026-05-06 22:44 | 35.02416 | -89.97521 | 328 ft | 13 kts | 275° |
| 2026-05-06 22:44 | 35.02457 | -89.97554 | 326 ft | 0 kts | 358° |
| 2026-05-06 22:45 | 35.02660 | -89.97562 | 328 ft | 82 kts | 359° |
| 2026-05-06 22:45 | 35.03562 | -89.97574 | 337 ft | 170 kts | 0° |
| 2026-05-06 22:45 | 35.04804 | -89.97611 | 1145 ft | 181 kts | 359° |
| 2026-05-06 22:46 | 35.06052 | -89.97669 | 2337 ft | 178 kts | 2° |
| 2026-05-06 22:46 | 35.07305 | -89.97476 | 3264 ft | 192 kts | 11° |
| 2026-05-06 22:46 | 35.08736 | -89.97147 | 3815 ft | 227 kts | 10° |
| 2026-05-06 22:46 | 35.10368 | -89.96770 | 4660 ft | 245 kts | 9° |
| 2026-05-06 22:47 | 35.12091 | -89.96380 | 5714 ft | 258 kts | 8° |
| 2026-05-06 22:47 | 35.13905 | -89.95978 | 6785 ft | 272 kts | 6° |
| 2026-05-06 22:47 | 35.15813 | -89.95561 | 7880 ft | 285 kts | 6° |
| 2026-05-06 22:47 | 35.17797 | -89.95128 | 9046 ft | 293 kts | 5° |
| 2026-05-06 22:48 | 35.19819 | -89.94690 | 10263 ft | 298 kts | 4° |
| 2026-05-06 22:48 | 35.21906 | -89.94111 | 10977 ft | 327 kts | 15° |
| 2026-05-06 22:48 | 35.23974 | -89.92535 | 11227 ft | 371 kts | 37° |
| 2026-05-06 22:48 | 35.25982 | -89.90437 | 12202 ft | 386 kts | 38° |
| 2026-05-06 22:49 | 35.28056 | -89.88281 | 13468 ft | 396 kts | 38° |
| 2026-05-06 22:49 | 35.30194 | -89.86074 | 14656 ft | 408 kts | 37° |
| 2026-05-06 22:49 | 35.32407 | -89.83803 | 15733 ft | 422 kts | 36° |
| 2026-05-06 22:49 | 35.34701 | -89.81464 | 16780 ft | 436 kts | 35° |
| 2026-05-06 22:50 | 35.37058 | -89.79059 | 17802 ft | 448 kts | 34° |
| 2026-05-06 22:50 | 35.39487 | -89.76584 | 18769 ft | 461 kts | 34° |
| 2026-05-06 22:50 | 35.41979 | -89.74051 | 19784 ft | 469 kts | 34° |
| 2026-05-06 22:50 | 35.44488 | -89.71477 | 20986 ft | 472 kts | 33° |
| 2026-05-06 22:51 | 35.47016 | -89.68890 | 22139 ft | 476 kts | 33° |
| 2026-05-06 22:51 | 35.49572 | -89.66279 | 23199 ft | 481 kts | 33° |
| 2026-05-06 22:51 | 35.51281 | -89.64535 | 23834 ft | 485 kts | 33° |
| 2026-05-06 22:51 | 35.53876 | -89.61880 | 24985 ft | 485 kts | 32° |
| 2026-05-06 22:52 | 35.56464 | -89.59228 | 26226 ft | 484 kts | 32° |
| 2026-05-06 22:52 | 35.59885 | -89.55720 | 27718 ft | 484 kts | 32° |
| 2026-05-06 22:52 | 35.61646 | -89.53953 | 28420 ft | 483 kts | 29° |
| 2026-05-06 22:52 | 35.65321 | -89.51015 | 29813 ft | 473 kts | 20° |
| 2026-05-06 22:53 | 35.68172 | -89.48976 | 30645 ft | 477 kts | 20° |
| 2026-05-06 22:53 | 35.70119 | -89.47587 | 30974 ft | 480 kts | 19° |
| 2026-05-06 22:53 | 35.72970 | -89.45536 | 31029 ft | 481 kts | 20° |
| 2026-05-06 22:54 | 35.78656 | -89.41344 | 31001 ft | 472 kts | 20° |
| 2026-05-06 22:54 | 35.84267 | -89.37151 | 31025 ft | 473 kts | 20° |
| 2026-05-06 22:55 | 35.89902 | -89.32930 | 31030 ft | 475 kts | 20° |
| 2026-05-06 22:55 | 35.95559 | -89.28685 | 31023 ft | 477 kts | 20° |
| 2026-05-06 22:56 | 36.01223 | -89.24427 | 31019 ft | 476 kts | 21° |
| 2026-05-06 22:56 | 36.06885 | -89.20162 | 31011 ft | 477 kts | 20° |
| 2026-05-06 22:57 | 36.12554 | -89.15885 | 31022 ft | 477 kts | 20° |
| 2026-05-06 22:57 | 36.18221 | -89.11607 | 31015 ft | 478 kts | 20° |
| 2026-05-06 22:58 | 36.23896 | -89.07314 | 31004 ft | 478 kts | 20° |
| 2026-05-06 22:58 | 36.29564 | -89.03020 | 31019 ft | 478 kts | 21° |
| 2026-05-06 22:59 | 36.35214 | -88.98721 | 31011 ft | 477 kts | 20° |
| 2026-05-06 22:59 | 36.40889 | -88.94420 | 31003 ft | 477 kts | 20° |
| 2026-05-06 23:00 | 36.46528 | -88.90123 | 31007 ft | 474 kts | 20° |
| 2026-05-06 23:00 | 36.52136 | -88.85849 | 31009 ft | 472 kts | 20° |
| 2026-05-06 23:01 | 36.57739 | -88.81577 | 31006 ft | 472 kts | 20° |
| 2026-05-06 23:01 | 36.63336 | -88.77303 | 31014 ft | 473 kts | 20° |
| 2026-05-06 23:02 | 36.68946 | -88.73009 | 31012 ft | 474 kts | 20° |
| 2026-05-06 23:02 | 36.74528 | -88.68728 | 31021 ft | 474 kts | 20° |
| 2026-05-06 23:03 | 36.80151 | -88.64407 | 31016 ft | 475 kts | 20° |
| 2026-05-06 23:03 | 36.85788 | -88.60068 | 31021 ft | 476 kts | 20° |
| 2026-05-06 23:04 | 36.91418 | -88.55725 | 31017 ft | 476 kts | 20° |
| 2026-05-06 23:04 | 36.97055 | -88.51370 | 31018 ft | 477 kts | 20° |
| 2026-05-06 23:05 | 37.02623 | -88.47064 | 31020 ft | 477 kts | 20° |
| 2026-05-06 23:05 | 37.08270 | -88.42685 | 31031 ft | 477 kts | 20° |
| 2026-05-06 23:06 | 37.13916 | -88.38302 | 31027 ft | 478 kts | 20° |
| 2026-05-06 23:06 | 37.19572 | -88.33901 | 31033 ft | 478 kts | 20° |
| 2026-05-06 23:07 | 37.25225 | -88.29491 | 31033 ft | 479 kts | 20° |
| 2026-05-06 23:07 | 37.30879 | -88.25074 | 31035 ft | 478 kts | 20° |
| 2026-05-06 23:08 | 37.36527 | -88.20658 | 31042 ft | 478 kts | 20° |
| 2026-05-06 23:08 | 37.42162 | -88.16245 | 31034 ft | 477 kts | 19° |
| 2026-05-06 23:09 | 37.47799 | -88.11822 | 31031 ft | 478 kts | 19° |